createdAt,value
2019-06-01T00:01:10.825Z,95213.19
2019-06-01T00:03:40.252Z,95213.13
2019-06-01T00:06:07.206Z,95213.09
2019-06-01T00:08:33.900Z,95214.16
2019-06-01T00:11:00.583Z,95211.83
2019-06-01T00:13:27.238Z,95214.91
2019-06-01T00:15:55.084Z,95211.14
2019-06-01T00:18:21.811Z,95218.64
2019-06-01T00:20:48.684Z,95222.97
2019-06-01T00:23:15.484Z,95224.50
2019-06-01T00:25:42.644Z,95216.83
2019-06-01T00:28:09.627Z,95223.45
2019-06-01T00:30:36.305Z,95222.33
2019-06-01T00:33:03.076Z,95224.15
2019-06-01T00:35:29.912Z,95223.51
2019-06-01T00:37:56.601Z,95214.34
2019-06-01T00:40:23.356Z,95208.20
2019-06-01T00:42:50.286Z,95203.44
2019-06-01T00:45:17.825Z,95211.19
2019-06-01T00:47:44.814Z,95212.80
2019-06-01T00:50:11.666Z,95214.77
2019-06-01T00:52:38.359Z,95211.09
2019-06-01T00:55:05.194Z,95206.41
2019-06-01T00:57:31.983Z,95202.62
2019-06-01T00:59:58.782Z,95198.77
2019-06-01T01:02:25.461Z,95194.63
2019-06-01T01:05:16.958Z,95190.17
2019-06-01T01:07:44.521Z,95190.30
2019-06-01T01:10:13.295Z,95195.97
2019-06-01T01:12:58.435Z,95195.00
2019-06-01T01:15:25.366Z,95197.06
2019-06-01T01:17:52.089Z,95186.03
2019-06-01T01:20:18.798Z,95185.36
2019-06-01T01:22:46.119Z,95180.64
2019-06-01T01:25:13.077Z,95182.00
2019-06-01T01:27:39.937Z,95166.56
2019-06-01T01:30:06.597Z,95165.04
2019-06-01T01:32:33.426Z,95157.27
2019-06-01T01:35:00.199Z,95160.42
2019-06-01T01:37:26.941Z,95146.84
2019-06-01T01:39:54.225Z,95148.72
2019-06-01T01:42:21.080Z,95153.31
2019-06-01T01:44:48.393Z,95148.27
2019-06-01T01:47:15.225Z,95149.92
2019-06-01T01:49:41.964Z,95150.52
2019-06-01T01:52:08.641Z,95145.01
2019-06-01T01:54:35.327Z,95146.59
2019-06-01T01:57:02.473Z,95152.64
2019-06-01T01:59:29.299Z,95142.50
2019-06-01T02:01:56.538Z,95147.64
2019-06-01T02:04:23.290Z,95148.61
2019-06-01T02:06:50.064Z,95150.41
2019-06-01T02:09:16.737Z,95152.94
2019-06-01T02:11:43.420Z,95148.91
2019-06-01T02:14:10.115Z,95160.75
2019-06-01T02:16:37.053Z,95152.54
2019-06-01T02:19:03.738Z,95154.59
2019-06-01T02:21:30.399Z,95154.59
2019-06-01T02:23:57.081Z,95147.95
2019-06-01T02:26:23.819Z,95146.69
2019-06-01T02:28:50.477Z,95157.84
2019-06-01T02:31:17.285Z,95153.55
2019-06-01T02:33:43.967Z,95156.47
2019-06-01T02:36:10.712Z,95156.57
2019-06-01T02:38:37.338Z,95146.91
2019-06-01T02:41:05.749Z,95144.08
2019-06-01T02:43:32.617Z,95150.16
2019-06-01T02:46:01.014Z,95153.34
2019-06-01T02:48:29.158Z,95147.27
2019-06-01T02:50:57.403Z,95152.31
2019-06-01T02:53:24.282Z,95149.33
2019-06-01T02:55:50.982Z,95146.75
2019-06-01T02:58:17.655Z,95147.59
2019-06-01T03:00:48.161Z,95143.74
2019-06-01T03:03:15.279Z,95148.34
2019-06-01T03:05:44.559Z,95152.20
2019-06-01T03:08:13.706Z,95153.09
2019-06-01T03:10:40.981Z,95153.99
2019-06-01T03:13:09.668Z,95158.69
2019-06-01T03:15:39.897Z,95151.42
2019-06-01T03:18:09.448Z,95152.17
2019-06-01T03:20:38.585Z,95149.12
2019-06-01T03:23:08.793Z,95147.13
2019-06-01T03:25:38.571Z,95144.41
2019-06-01T03:28:08.900Z,95147.25
2019-06-01T03:30:44.774Z,95150.12
2019-06-01T03:33:10.581Z,95151.31
2019-06-01T03:35:37.498Z,95152.63
2019-06-01T03:38:04.968Z,95150.92
2019-06-01T03:40:31.936Z,95153.41
2019-06-01T03:43:00.058Z,95158.14
2019-06-01T03:45:27.086Z,95150.84
2019-06-01T03:47:53.781Z,95155.30
2019-06-01T03:50:20.526Z,95157.06
2019-06-01T03:52:47.445Z,95159.59
2019-06-01T03:55:14.294Z,95164.79
2019-06-01T03:57:40.958Z,95166.24
2019-06-01T04:00:09.269Z,95169.94
2019-06-01T04:02:36.288Z,95170.63
2019-06-01T04:05:05.607Z,95170.63
2019-06-01T04:07:32.537Z,95169.88
2019-06-01T04:09:59.236Z,95174.84
2019-06-01T04:12:25.906Z,95168.03
2019-06-01T04:14:53.766Z,95176.68
2019-06-01T04:17:20.508Z,95173.61
2019-06-01T04:19:47.213Z,95176.44
2019-06-01T04:22:13.906Z,95171.84
2019-06-01T04:24:40.647Z,95167.58
2019-06-01T04:27:08.224Z,95170.83
2019-06-01T04:29:35.084Z,95164.81
2019-06-01T04:32:02.502Z,95163.63
2019-06-01T04:34:29.449Z,95166.52
2019-06-01T04:36:56.177Z,95169.92
2019-06-01T04:39:22.856Z,95167.58
2019-06-01T04:41:49.516Z,95165.48
2019-06-01T04:44:18.298Z,95166.22
2019-06-01T04:46:44.919Z,95167.94
2019-06-01T04:49:13.266Z,95167.82
2019-06-01T04:51:40.286Z,95159.44
2019-06-01T04:54:07.044Z,95164.69
2019-06-01T04:56:33.789Z,95171.17
2019-06-01T04:59:00.545Z,95168.54
2019-06-01T05:01:27.307Z,95164.01
2019-06-01T05:03:54.041Z,95166.67
2019-06-01T05:06:20.756Z,95171.83
2019-06-01T05:08:47.438Z,95170.09
2019-06-01T05:11:15.575Z,95170.70
2019-06-01T05:13:42.545Z,95166.94
2019-06-01T05:16:10.037Z,95173.61
2019-06-01T05:18:37.132Z,95170.17
2019-06-01T05:21:03.872Z,95171.95
2019-06-01T05:23:30.530Z,95169.84
2019-06-01T05:25:57.288Z,95169.84
2019-06-01T05:28:23.985Z,95166.80
2019-06-01T05:30:50.711Z,95164.89
2019-06-01T05:33:31.063Z,95166.63
2019-06-01T05:35:46.171Z,95166.02
2019-06-01T05:38:12.824Z,95165.06
2019-06-01T05:40:39.764Z,95166.89
2019-06-01T05:43:06.440Z,95165.52
2019-06-01T05:45:33.154Z,95154.95
2019-06-01T05:47:59.893Z,95156.45
2019-06-01T05:50:26.724Z,95161.35
2019-06-01T05:52:53.419Z,95153.97
2019-06-01T05:55:20.111Z,95148.63
2019-06-01T05:57:46.867Z,95147.45
2019-06-01T06:00:17.327Z,95153.15
2019-06-01T06:02:43.985Z,95153.72
2019-06-01T06:05:10.786Z,95155.88
2019-06-01T06:07:37.463Z,95158.95
2019-06-01T06:10:06.445Z,95155.42
2019-06-01T06:12:33.184Z,95150.16
2019-06-01T06:14:59.887Z,95150.33
2019-06-01T06:17:26.699Z,95156.11
2019-06-01T06:19:53.453Z,95153.82
2019-06-01T06:22:20.409Z,95154.90
2019-06-01T06:24:47.142Z,95154.90
2019-06-01T06:27:14.462Z,95151.86
2019-06-01T06:29:41.513Z,95161.34
2019-06-01T06:32:09.298Z,95161.92
2019-06-01T06:34:36.266Z,95154.25
2019-06-01T06:37:03.128Z,95152.58
2019-06-01T06:39:29.913Z,95163.42
2019-06-01T06:41:56.761Z,95160.92
2019-06-01T06:44:24.533Z,95157.65
2019-06-01T06:46:51.527Z,95151.38
2019-06-01T06:49:19.139Z,95152.08
2019-06-01T06:51:47.044Z,95158.19
2019-06-01T06:54:14.675Z,95152.97
2019-06-01T06:56:42.350Z,95152.97
2019-06-01T06:59:11.725Z,95151.39
2019-06-01T07:01:37.681Z,95159.76
2019-06-01T07:04:12.564Z,95163.28
2019-06-01T07:06:32.965Z,95157.65
2019-06-01T07:08:59.849Z,95160.70
2019-06-01T07:11:27.419Z,95160.70
2019-06-01T07:13:54.236Z,95164.41
2019-06-01T07:16:21.426Z,95165.48
2019-06-01T07:18:48.309Z,95159.67
2019-06-01T07:21:15.328Z,95159.24
2019-06-01T07:23:41.991Z,95161.84
2019-06-01T07:26:08.657Z,95162.78
2019-06-01T07:28:35.442Z,95166.48
2019-06-01T07:31:02.136Z,95168.56
2019-06-01T07:33:28.923Z,95153.85
2019-06-01T07:35:55.637Z,95163.71
2019-06-01T07:38:22.336Z,95165.42
2019-06-01T07:40:49.108Z,95168.56
2019-06-01T07:43:15.783Z,95166.14
2019-06-01T07:45:42.463Z,95151.79
2019-06-01T07:48:09.384Z,95171.61
2019-06-01T07:50:37.162Z,95177.31
2019-06-01T07:53:03.834Z,95177.94
2019-06-01T07:55:31.722Z,95180.77
2019-06-01T07:57:58.615Z,95182.91
2019-06-01T08:00:27.144Z,95186.38
2019-06-01T08:02:53.978Z,95178.97
2019-06-01T08:05:23.250Z,95180.12
2019-06-01T08:07:49.263Z,95176.41
2019-06-01T08:10:16.044Z,95175.02
2019-06-01T08:12:42.744Z,95168.20
2019-06-01T08:15:09.682Z,95168.77
2019-06-01T08:17:36.528Z,95172.47
2019-06-01T08:20:04.718Z,95170.17
2019-06-01T08:22:32.134Z,95171.64
2019-06-01T08:24:59.229Z,95167.64
2019-06-01T08:27:27.006Z,95163.12
2019-06-01T08:29:53.693Z,95168.41
2019-06-01T08:32:24.556Z,95171.80
2019-06-01T08:35:07.138Z,95168.69
2019-06-01T08:37:23.325Z,95176.19
2019-06-01T08:39:50.413Z,95179.48
2019-06-01T08:42:17.386Z,95187.74
2019-06-01T08:44:44.139Z,95189.47
2019-06-01T08:47:11.201Z,95192.30
2019-06-01T08:49:37.913Z,95190.73
2019-06-01T08:52:04.678Z,95199.72
2019-06-01T08:54:32.289Z,95193.79
2019-06-01T08:56:59.555Z,95191.49
2019-06-01T08:59:26.302Z,95190.93
2019-06-01T09:01:52.984Z,95183.34
2019-06-01T09:04:19.719Z,95189.27
2019-06-01T09:06:46.458Z,95191.28
2019-06-01T09:09:13.222Z,95186.28
2019-06-01T09:11:40.074Z,95185.57
2019-06-01T09:14:06.919Z,95188.72
2019-06-01T09:16:33.693Z,95188.12
2019-06-01T09:19:00.487Z,95183.24
2019-06-01T09:21:27.510Z,95188.09
2019-06-01T09:23:54.365Z,95196.34
2019-06-01T09:26:22.051Z,95189.99
2019-06-01T09:28:49.123Z,95197.42
2019-06-01T09:31:15.764Z,95185.58
2019-06-01T09:33:42.438Z,95187.72
2019-06-01T09:36:09.226Z,95187.00
2019-06-01T09:38:36.107Z,95183.78
2019-06-01T09:41:03.096Z,95191.62
2019-06-01T09:43:31.081Z,95186.97
2019-06-01T09:45:58.042Z,95184.92
2019-06-01T09:48:24.711Z,95183.78
2019-06-01T09:50:51.360Z,95177.25
2019-06-01T09:53:18.040Z,95186.65
2019-06-01T09:55:44.878Z,95189.48
2019-06-01T09:58:11.813Z,95185.45
2019-06-01T10:00:43.071Z,95182.06
2019-06-01T10:03:07.646Z,95178.63
2019-06-01T10:05:34.878Z,95172.48
2019-06-01T10:08:01.626Z,95178.65
2019-06-01T10:10:29.733Z,95172.21
2019-06-01T10:12:56.774Z,95165.83
2019-06-01T10:15:24.483Z,95165.84
2019-06-01T10:17:51.329Z,95163.10
2019-06-01T10:20:18.282Z,95162.63
2019-06-01T10:22:45.044Z,95162.78
2019-06-01T10:25:11.917Z,95159.51
2019-06-01T10:27:38.807Z,95157.19
2019-06-01T10:30:09.518Z,95152.48
2019-06-01T10:32:37.869Z,95149.42
2019-06-01T10:35:06.347Z,95149.71
2019-06-01T10:37:33.398Z,95154.16
2019-06-01T10:40:00.303Z,95152.77
2019-06-01T10:42:27.064Z,95153.25
2019-06-01T10:44:53.694Z,95154.94
2019-06-01T10:47:20.396Z,95153.54
2019-06-01T10:49:47.169Z,95147.47
2019-06-01T10:52:13.929Z,95154.73
2019-06-01T10:54:40.648Z,95148.98
2019-06-01T10:57:07.360Z,95144.14
2019-06-01T10:59:34.303Z,95153.07
2019-06-01T11:02:01.078Z,95143.35
2019-06-01T11:04:27.829Z,95153.00
2019-06-01T11:06:54.589Z,95145.07
2019-06-01T11:09:21.267Z,95150.20
2019-06-01T11:11:48.215Z,95153.28
2019-06-01T11:14:14.922Z,95155.67
2019-06-01T11:16:41.961Z,95158.56
2019-06-01T11:19:10.105Z,95150.12
2019-06-01T11:21:37.455Z,95140.06
2019-06-01T11:24:04.487Z,95148.80
2019-06-01T11:26:31.229Z,95148.11
2019-06-01T11:28:57.899Z,95149.95
2019-06-01T11:31:24.592Z,95147.97
2019-06-01T11:33:51.307Z,95147.55
2019-06-01T11:36:18.054Z,95147.98
2019-06-01T11:38:45.118Z,95155.13
2019-06-01T11:41:12.026Z,95156.67
2019-06-01T11:43:39.005Z,95149.69
2019-06-01T11:46:05.771Z,95142.58
2019-06-01T11:48:32.445Z,95142.27
2019-06-01T11:51:00.313Z,95151.06
2019-06-01T11:53:26.995Z,95146.36
2019-06-01T11:55:53.747Z,95142.91
2019-06-01T11:58:21.565Z,95144.86
2019-06-01T12:00:48.231Z,95148.18
2019-06-01T12:03:14.987Z,95144.75
2019-06-01T12:05:44.028Z,95142.81
2019-06-01T12:08:11.096Z,95152.19
2019-06-01T12:10:38.936Z,95155.17
2019-06-01T12:13:05.994Z,95149.67
2019-06-01T12:15:32.739Z,95147.30
2019-06-01T12:17:59.422Z,95148.70
2019-06-01T12:20:26.193Z,95149.14
2019-06-01T12:22:53.171Z,95147.97
2019-06-01T12:25:19.835Z,95141.06
2019-06-01T12:27:46.518Z,95147.05
2019-06-01T12:30:14.011Z,95146.39
2019-06-01T12:32:41.934Z,95142.60
2019-06-01T12:35:09.131Z,95139.95
2019-06-01T12:37:55.058Z,95142.72
2019-06-01T12:40:07.714Z,95142.82
2019-06-01T12:42:34.427Z,95142.94
2019-06-01T12:45:01.308Z,95147.97
2019-06-01T12:47:28.048Z,95142.25
2019-06-01T12:49:54.776Z,95136.05
2019-06-01T12:52:21.535Z,95136.08
2019-06-01T12:54:49.028Z,95132.48
2019-06-01T12:57:16.013Z,95139.13
2019-06-01T12:59:43.151Z,95140.73
2019-06-01T13:02:10.064Z,95141.62
2019-06-01T13:04:37.020Z,95142.69
2019-06-01T13:07:03.795Z,95139.25
2019-06-01T13:09:30.497Z,95137.23
2019-06-01T13:11:57.451Z,95133.75
2019-06-01T13:14:24.647Z,95135.14
2019-06-01T13:17:06.347Z,95135.84
2019-06-01T13:19:20.078Z,95139.85
2019-06-01T13:21:47.475Z,95133.67
2019-06-01T13:24:14.379Z,95131.24
2019-06-01T13:26:43.636Z,95125.86
2019-06-01T13:29:13.434Z,95122.77
2019-06-01T13:31:40.123Z,95132.97
2019-06-01T13:34:06.846Z,95133.45
2019-06-01T13:36:33.632Z,95136.31
2019-06-01T13:39:00.383Z,95137.11
2019-06-01T13:41:27.059Z,95139.75
2019-06-01T13:43:53.874Z,95136.18
2019-06-01T13:46:20.880Z,95129.05
2019-06-01T13:48:47.565Z,95128.14
2019-06-01T13:51:14.257Z,95127.47
2019-06-01T13:53:41.031Z,95129.42
2019-06-01T13:56:08.082Z,95136.05
2019-06-01T13:58:34.772Z,95131.91
2019-06-01T14:01:01.520Z,95129.27
2019-06-01T14:03:28.456Z,95134.73
2019-06-01T14:05:56.259Z,95133.22
2019-06-01T14:08:29.018Z,95131.91
2019-06-01T14:10:51.549Z,95131.08
2019-06-01T14:13:18.289Z,95130.72
2019-06-01T14:15:45.388Z,95128.12
2019-06-01T14:18:12.192Z,95122.52
2019-06-01T14:20:38.986Z,95123.66
2019-06-01T14:23:05.787Z,95123.55
2019-06-01T14:25:32.728Z,95121.47
2019-06-01T14:27:59.587Z,95120.34
2019-06-01T14:30:26.334Z,95109.36
2019-06-01T14:32:54.224Z,95108.67
2019-06-01T14:35:21.809Z,95104.77
2019-06-01T14:37:48.869Z,95106.38
2019-06-01T14:40:15.790Z,95110.37
2019-06-01T14:42:42.513Z,95097.77
2019-06-01T14:45:09.414Z,95090.69
2019-06-01T14:47:36.231Z,95101.91
2019-06-01T14:50:07.917Z,95099.72
2019-06-01T14:52:35.393Z,95104.30
2019-06-01T14:55:03.300Z,95100.42
2019-06-01T14:57:30.097Z,95096.42
2019-06-01T14:59:56.853Z,95095.38
2019-06-01T15:02:23.564Z,95088.95
2019-06-01T15:04:50.364Z,95097.30
2019-06-01T15:07:17.175Z,95098.77
2019-06-01T15:09:43.929Z,95088.44
2019-06-01T15:12:10.681Z,95089.09
2019-06-01T15:14:37.371Z,95087.75
2019-06-01T15:17:04.563Z,95091.79
2019-06-01T15:19:31.684Z,95085.74
2019-06-01T15:21:58.405Z,95089.89
2019-06-01T15:24:25.258Z,95094.48
2019-06-01T15:26:52.459Z,95095.20
2019-06-01T15:29:19.335Z,95097.84
2019-06-01T15:31:46.098Z,95094.99
2019-06-01T15:34:12.853Z,95092.47
2019-06-01T15:36:39.521Z,95088.84
2019-06-01T15:39:23.490Z,95095.76
2019-06-01T15:41:35.843Z,95095.91
2019-06-01T15:44:02.558Z,95095.53
2019-06-01T15:46:29.311Z,95085.73
2019-06-01T15:48:56.233Z,95085.08
2019-06-01T15:51:23.365Z,95092.37
2019-06-01T15:53:50.064Z,95087.26
2019-06-01T15:56:17.000Z,95089.89
2019-06-01T15:58:53.065Z,95078.02
2019-06-01T16:01:12.426Z,95085.62
2019-06-01T16:03:39.155Z,95091.89
2019-06-01T16:06:05.837Z,95084.30
2019-06-01T16:08:32.657Z,95090.78
2019-06-01T16:11:02.807Z,95090.48
2019-06-01T16:13:28.061Z,95085.13
2019-06-01T16:15:55.360Z,95082.98
2019-06-01T16:18:22.213Z,95094.08
2019-06-01T16:20:48.889Z,95093.63
2019-06-01T16:23:15.557Z,95098.08
2019-06-01T16:25:42.367Z,95092.59
2019-06-01T16:28:09.102Z,95093.81
2019-06-01T16:30:35.872Z,95098.59
2019-06-01T16:33:03.069Z,95094.42
2019-06-01T16:35:29.774Z,95099.65
2019-06-01T16:37:56.866Z,95095.04
2019-06-01T16:40:23.871Z,95103.05
2019-06-01T16:42:50.604Z,95099.13
2019-06-01T16:45:17.488Z,95102.66
2019-06-01T16:47:44.278Z,95109.20
2019-06-01T16:50:11.380Z,95108.41
2019-06-01T16:52:39.409Z,95110.22
2019-06-01T16:55:08.287Z,95104.23
2019-06-01T16:57:36.186Z,95106.03
2019-06-01T17:00:07.158Z,95109.93
2019-06-01T17:02:34.273Z,95113.07
2019-06-01T17:05:01.077Z,95103.47
2019-06-01T17:07:29.189Z,95100.35
2019-06-01T17:09:56.651Z,95104.08
2019-06-01T17:12:23.689Z,95118.30
2019-06-01T17:14:51.400Z,95126.48
2019-06-01T17:17:18.672Z,95119.06
2019-06-01T17:19:46.651Z,95111.34
2019-06-01T17:22:13.424Z,95108.59
2019-06-01T17:24:40.300Z,95110.23
2019-06-01T17:27:08.199Z,95111.83
2019-06-01T17:29:35.128Z,95111.61
2019-06-01T17:32:16.715Z,95116.27
2019-06-01T17:34:30.625Z,95111.98
2019-06-01T17:36:58.585Z,95113.90
2019-06-01T17:39:25.519Z,95121.86
2019-06-01T17:41:52.176Z,95113.09
2019-06-01T17:44:18.869Z,95114.91
2019-06-01T17:46:53.388Z,95122.48
2019-06-01T17:49:14.264Z,95124.80
2019-06-01T17:51:40.957Z,95120.78
2019-06-01T17:54:08.412Z,95128.55
2019-06-01T17:56:35.488Z,95122.91
2019-06-01T17:59:03.300Z,95121.39
2019-06-01T18:01:30.263Z,95126.73
2019-06-01T18:03:57.208Z,95131.47
2019-06-01T18:06:23.900Z,95125.84
2019-06-01T18:08:50.763Z,95116.50
2019-06-01T18:11:17.407Z,95133.41
2019-06-01T18:13:44.183Z,95124.33
2019-06-01T18:16:11.004Z,95124.42
2019-06-01T18:18:37.871Z,95134.48
2019-06-01T18:21:04.563Z,95133.24
2019-06-01T18:23:31.425Z,95135.03
2019-06-01T18:25:58.352Z,95121.69
2019-06-01T18:28:25.064Z,95136.63
2019-06-01T18:30:51.827Z,95130.84
2019-06-01T18:33:19.778Z,95130.84
2019-06-01T18:35:47.044Z,95135.73
2019-06-01T18:38:14.866Z,95144.09
2019-06-01T18:40:41.832Z,95145.96
2019-06-01T18:43:12.261Z,95147.14
2019-06-01T18:45:39.152Z,95144.67
2019-06-01T18:48:06.359Z,95157.92
2019-06-01T18:50:33.782Z,95152.00
2019-06-01T18:53:00.629Z,95155.77
2019-06-01T18:55:27.840Z,95149.80
2019-06-01T18:57:58.080Z,95144.91
2019-06-01T19:00:25.006Z,95151.17
2019-06-01T19:02:51.796Z,95151.55
2019-06-01T19:05:18.661Z,95150.30
2019-06-01T19:07:45.444Z,95157.05
2019-06-01T19:10:15.653Z,95152.35
2019-06-01T19:12:42.589Z,95156.52
2019-06-01T19:15:24.490Z,95150.38
2019-06-01T19:17:38.481Z,95150.91
2019-06-01T19:20:06.604Z,95158.77
2019-06-01T19:22:33.683Z,95158.54
2019-06-01T19:25:00.380Z,95160.36
2019-06-01T19:27:27.133Z,95162.59
2019-06-01T19:29:54.031Z,95158.88
2019-06-01T19:32:21.477Z,95155.91
2019-06-01T19:34:48.370Z,95167.19
2019-06-01T19:37:17.198Z,95178.19
2019-06-01T19:39:45.780Z,95189.98
2019-06-01T19:42:13.421Z,95185.28
2019-06-01T19:44:40.398Z,95191.50
2019-06-01T19:47:08.074Z,95191.44
2019-06-01T19:49:34.816Z,95201.39
2019-06-01T19:52:01.504Z,95206.22
2019-06-01T19:54:28.244Z,95204.08
2019-06-01T19:56:54.969Z,95199.81
2019-06-01T19:59:22.201Z,95195.73
2019-06-01T20:01:49.246Z,95186.59
2019-06-01T20:04:16.665Z,95185.52
2019-06-01T20:06:43.555Z,95179.64
2019-06-01T20:09:10.981Z,95185.03
2019-06-01T20:11:37.915Z,95188.62
2019-06-01T20:14:04.681Z,95182.48
2019-06-01T20:16:31.543Z,95179.38
2019-06-01T20:18:58.429Z,95181.56
2019-06-01T20:21:25.110Z,95188.48
2019-06-01T20:23:51.918Z,95200.97
2019-06-01T20:26:19.450Z,95197.16
2019-06-01T20:28:46.223Z,95200.16
2019-06-01T20:31:13.705Z,95196.87
2019-06-01T20:33:40.608Z,95194.20
2019-06-01T20:36:08.970Z,95191.83
2019-06-01T20:38:35.711Z,95192.27
2019-06-01T20:41:02.812Z,95197.38
2019-06-01T20:43:29.581Z,95195.31
2019-06-01T20:45:57.031Z,95189.02
2019-06-01T20:48:23.950Z,95184.34
2019-06-01T20:50:50.829Z,95184.94
2019-06-01T20:53:18.934Z,95183.41
2019-06-01T20:55:45.811Z,95193.63
2019-06-01T20:58:13.787Z,95198.13
2019-06-01T21:00:40.828Z,95196.81
2019-06-01T21:03:07.597Z,95192.86
2019-06-01T21:05:34.269Z,95184.34
2019-06-01T21:08:01.045Z,95177.60
2019-06-01T21:10:27.741Z,95176.85
2019-06-01T21:12:54.528Z,95180.67
2019-06-01T21:15:21.388Z,95177.58
2019-06-01T21:17:50.245Z,95179.64
2019-06-01T21:20:22.162Z,95179.75
2019-06-01T21:22:45.815Z,95181.11
2019-06-01T21:25:12.627Z,95171.83
2019-06-01T21:27:39.409Z,95171.49
2019-06-01T21:30:07.036Z,95186.91
2019-06-01T21:32:33.724Z,95183.73
2019-06-01T21:35:00.440Z,95194.03
2019-06-01T21:37:27.264Z,95194.50
2019-06-01T21:39:54.047Z,95196.26
2019-06-01T21:42:21.739Z,95188.30
2019-06-01T21:44:48.765Z,95183.17
2019-06-01T21:47:15.572Z,95178.12
2019-06-01T21:49:42.270Z,95177.68
2019-06-01T21:52:09.021Z,95182.21
2019-06-01T21:54:35.718Z,95184.08
2019-06-01T21:57:02.523Z,95186.83
2019-06-01T21:59:29.302Z,95182.44
2019-06-01T22:01:55.977Z,95180.78
2019-06-01T22:04:23.144Z,95184.01
2019-06-01T22:06:50.086Z,95192.96
2019-06-01T22:09:17.162Z,95201.85
2019-06-01T22:11:44.441Z,95190.97
2019-06-01T22:14:11.308Z,95189.10
2019-06-01T22:16:38.006Z,95190.40
2019-06-01T22:19:04.802Z,95187.87
2019-06-01T22:21:31.566Z,95193.52
2019-06-01T22:23:58.273Z,95205.18
2019-06-01T22:26:26.267Z,95208.71
2019-06-01T22:28:53.381Z,95207.41
2019-06-01T22:31:20.248Z,95208.28
2019-06-01T22:33:47.138Z,95210.08
2019-06-01T22:36:13.904Z,95210.02
2019-06-01T22:38:40.623Z,95211.64
2019-06-01T22:41:07.300Z,95203.92
2019-06-01T22:43:45.459Z,95199.37
2019-06-01T22:46:03.191Z,95199.41
2019-06-01T22:48:29.892Z,95194.70
2019-06-01T22:50:56.639Z,95196.52
2019-06-01T22:53:24.107Z,95199.55
2019-06-01T22:55:51.131Z,95196.94
2019-06-01T22:58:17.902Z,95202.22
2019-06-01T23:00:44.676Z,95202.03
2019-06-01T23:03:11.547Z,95205.11
2019-06-01T23:05:38.305Z,95206.10
2019-06-01T23:08:04.975Z,95208.13
2019-06-01T23:10:35.310Z,95202.15
2019-06-01T23:13:00.463Z,95193.09
2019-06-01T23:15:27.926Z,95184.80
2019-06-01T23:17:54.983Z,95186.88
2019-06-01T23:20:21.835Z,95182.38
2019-06-01T23:22:48.499Z,95181.42
2019-06-01T23:25:15.206Z,95190.69
2019-06-01T23:27:42.005Z,95184.08
2019-06-01T23:30:09.249Z,95178.20
2019-06-01T23:32:36.354Z,95189.61
2019-06-01T23:35:04.622Z,95193.41
2019-06-01T23:37:31.282Z,95192.26
2019-06-01T23:39:58.017Z,95194.70
2019-06-01T23:42:24.736Z,95183.63
2019-06-01T23:44:51.505Z,95182.94
2019-06-01T23:47:18.505Z,95181.13
2019-06-01T23:49:48.089Z,95172.07
2019-06-01T23:52:14.852Z,95176.17
2019-06-01T23:54:42.624Z,95177.03
2019-06-01T23:57:09.363Z,95176.96
2019-06-01T23:59:36.027Z,95176.84
